sensor_id;sensor_type;location;lat;lon;timestamp;P1;durP1;ratioP1;P2;durP2;ratioP2
55489;SDS011;44029;52.956;4.772;2023-06-22T00:00:52;40.47;;;15.95;;
55489;SDS011;44029;52.956;4.772;2023-06-22T00:03:18;41.63;;;14.30;;
55489;SDS011;44029;52.956;4.772;2023-06-22T00:05:45;48.15;;;13.73;;
55489;SDS011;44029;52.956;4.772;2023-06-22T00:08:13;38.17;;;12.52;;
55489;SDS011;44029;52.956;4.772;2023-06-22T00:10:39;37.40;;;10.70;;
55489;SDS011;44029;52.956;4.772;2023-06-22T00:13:07;38.33;;;11.60;;
55489;SDS011;44029;52.956;4.772;2023-06-22T00:15:33;34.97;;;9.57;;
55489;SDS011;44029;52.956;4.772;2023-06-22T00:17:59;33.75;;;9.60;;
55489;SDS011;44029;52.956;4.772;2023-06-22T00:20:25;32.17;;;9.70;;
55489;SDS011;44029;52.956;4.772;2023-06-22T00:22:55;23.80;;;8.00;;
55489;SDS011;44029;52.956;4.772;2023-06-22T00:25:20;35.25;;;10.18;;
55489;SDS011;44029;52.956;4.772;2023-06-22T00:27:46;30.80;;;9.63;;
55489;SDS011;44029;52.956;4.772;2023-06-22T00:30:12;27.80;;;10.15;;
55489;SDS011;44029;52.956;4.772;2023-06-22T00:32:38;35.10;;;10.35;;
55489;SDS011;44029;52.956;4.772;2023-06-22T00:35:03;29.00;;;9.68;;
55489;SDS011;44029;52.956;4.772;2023-06-22T00:37:29;34.10;;;10.18;;
55489;SDS011;44029;52.956;4.772;2023-06-22T00:39:54;29.30;;;9.73;;
55489;SDS011;44029;52.956;4.772;2023-06-22T00:42:20;29.00;;;9.27;;
55489;SDS011;44029;52.956;4.772;2023-06-22T00:44:45;31.52;;;11.27;;
55489;SDS011;44029;52.956;4.772;2023-06-22T00:47:11;34.00;;;11.65;;
55489;SDS011;44029;52.956;4.772;2023-06-22T00:49:40;37.25;;;12.18;;
55489;SDS011;44029;52.956;4.772;2023-06-22T00:52:06;39.42;;;11.88;;
55489;SDS011;44029;52.956;4.772;2023-06-22T00:54:34;35.03;;;11.27;;
55489;SDS011;44029;52.956;4.772;2023-06-22T00:57:01;32.28;;;11.88;;
55489;SDS011;44029;52.956;4.772;2023-06-22T00:59:27;28.85;;;9.85;;
55489;SDS011;44029;52.956;4.772;2023-06-22T01:01:53;34.25;;;11.68;;
55489;SDS011;44029;52.956;4.772;2023-06-22T01:04:19;31.63;;;10.13;;
55489;SDS011;44029;52.956;4.772;2023-06-22T01:09:36;26.92;;;10.48;;
55489;SDS011;44029;52.956;4.772;2023-06-22T01:12:22;27.35;;;11.05;;
55489;SDS011;44029;52.956;4.772;2023-06-22T01:14:50;32.67;;;10.30;;
55489;SDS011;44029;52.956;4.772;2023-06-22T01:17:25;29.00;;;9.45;;
55489;SDS011;44029;52.956;4.772;2023-06-22T01:19:54;28.60;;;11.13;;
55489;SDS011;44029;52.956;4.772;2023-06-22T01:22:22;26.77;;;10.38;;
55489;SDS011;44029;52.956;4.772;2023-06-22T01:28:16;27.23;;;10.40;;
55489;SDS011;44029;52.956;4.772;2023-06-22T01:30:42;25.23;;;9.88;;
55489;SDS011;44029;52.956;4.772;2023-06-22T01:33:11;28.50;;;10.82;;
55489;SDS011;44029;52.956;4.772;2023-06-22T01:35:38;28.52;;;10.40;;
55489;SDS011;44029;52.956;4.772;2023-06-22T01:38:05;29.35;;;10.32;;
55489;SDS011;44029;52.956;4.772;2023-06-22T01:40:32;29.67;;;11.68;;
55489;SDS011;44029;52.956;4.772;2023-06-22T01:43:00;32.22;;;11.30;;
55489;SDS011;44029;52.956;4.772;2023-06-22T01:45:26;34.50;;;11.05;;
55489;SDS011;44029;52.956;4.772;2023-06-22T01:47:52;26.80;;;9.93;;
55489;SDS011;44029;52.956;4.772;2023-06-22T01:50:19;25.95;;;11.05;;
55489;SDS011;44029;52.956;4.772;2023-06-22T01:52:45;30.08;;;12.05;;
55489;SDS011;44029;52.956;4.772;2023-06-22T01:55:10;31.33;;;11.63;;
55489;SDS011;44029;52.956;4.772;2023-06-22T01:57:36;31.20;;;11.73;;
55489;SDS011;44029;52.956;4.772;2023-06-22T02:00:04;31.80;;;11.68;;
55489;SDS011;44029;52.956;4.772;2023-06-22T02:02:34;31.50;;;12.85;;
55489;SDS011;44029;52.956;4.772;2023-06-22T02:05:05;34.20;;;13.18;;
55489;SDS011;44029;52.956;4.772;2023-06-22T02:07:33;28.80;;;12.52;;
55489;SDS011;44029;52.956;4.772;2023-06-22T02:10:02;29.30;;;12.13;;
55489;SDS011;44029;52.956;4.772;2023-06-22T02:12:29;32.65;;;11.88;;
55489;SDS011;44029;52.956;4.772;2023-06-22T02:14:56;28.65;;;12.48;;
55489;SDS011;44029;52.956;4.772;2023-06-22T02:17:23;29.42;;;12.27;;
55489;SDS011;44029;52.956;4.772;2023-06-22T02:19:49;30.48;;;13.25;;
55489;SDS011;44029;52.956;4.772;2023-06-22T02:22:14;28.73;;;12.70;;
55489;SDS011;44029;52.956;4.772;2023-06-22T02:24:40;28.35;;;12.60;;
55489;SDS011;44029;52.956;4.772;2023-06-22T02:27:05;27.27;;;13.27;;
55489;SDS011;44029;52.956;4.772;2023-06-22T02:29:32;26.55;;;11.73;;
55489;SDS011;44029;52.956;4.772;2023-06-22T02:31:58;26.92;;;12.90;;
55489;SDS011;44029;52.956;4.772;2023-06-22T02:34:23;34.30;;;14.30;;
55489;SDS011;44029;52.956;4.772;2023-06-22T02:36:50;36.00;;;15.35;;
55489;SDS011;44029;52.956;4.772;2023-06-22T02:39:20;36.72;;;15.32;;
55489;SDS011;44029;52.956;4.772;2023-06-22T02:41:47;36.45;;;17.52;;
55489;SDS011;44029;52.956;4.772;2023-06-22T02:44:13;41.67;;;17.17;;
55489;SDS011;44029;52.956;4.772;2023-06-22T02:46:39;33.25;;;16.77;;
55489;SDS011;44029;52.956;4.772;2023-06-22T02:49:04;36.95;;;16.58;;
55489;SDS011;44029;52.956;4.772;2023-06-22T02:51:32;39.20;;;15.80;;
55489;SDS011;44029;52.956;4.772;2023-06-22T02:53:59;37.38;;;15.82;;
55489;SDS011;44029;52.956;4.772;2023-06-22T02:56:24;36.45;;;17.13;;
55489;SDS011;44029;52.956;4.772;2023-06-22T02:58:50;33.45;;;17.63;;
55489;SDS011;44029;52.956;4.772;2023-06-22T03:01:16;39.90;;;17.73;;
55489;SDS011;44029;52.956;4.772;2023-06-22T03:03:41;36.30;;;17.27;;
55489;SDS011;44029;52.956;4.772;2023-06-22T03:06:07;38.40;;;17.25;;
55489;SDS011;44029;52.956;4.772;2023-06-22T03:08:32;36.03;;;18.02;;
55489;SDS011;44029;52.956;4.772;2023-06-22T03:10:58;41.47;;;19.55;;
55489;SDS011;44029;52.956;4.772;2023-06-22T03:13:23;38.78;;;18.88;;
55489;SDS011;44029;52.956;4.772;2023-06-22T03:15:49;43.70;;;20.23;;
55489;SDS011;44029;52.956;4.772;2023-06-22T03:18:14;45.40;;;22.38;;
55489;SDS011;44029;52.956;4.772;2023-06-22T03:20:40;45.90;;;22.20;;
55489;SDS011;44029;52.956;4.772;2023-06-22T03:23:06;39.72;;;20.67;;
55489;SDS011;44029;52.956;4.772;2023-06-22T03:25:31;45.22;;;20.48;;
55489;SDS011;44029;52.956;4.772;2023-06-22T03:27:58;49.38;;;21.75;;
55489;SDS011;44029;52.956;4.772;2023-06-22T03:30:26;39.03;;;20.10;;
55489;SDS011;44029;52.956;4.772;2023-06-22T03:32:51;43.55;;;19.25;;
55489;SDS011;44029;52.956;4.772;2023-06-22T03:35:16;39.40;;;19.05;;
55489;SDS011;44029;52.956;4.772;2023-06-22T03:37:42;36.15;;;19.38;;
55489;SDS011;44029;52.956;4.772;2023-06-22T03:40:07;37.78;;;18.60;;
55489;SDS011;44029;52.956;4.772;2023-06-22T03:42:34;36.47;;;18.77;;
55489;SDS011;44029;52.956;4.772;2023-06-22T03:45:01;36.63;;;18.05;;
55489;SDS011;44029;52.956;4.772;2023-06-22T03:47:26;34.80;;;17.65;;
55489;SDS011;44029;52.956;4.772;2023-06-22T03:49:52;36.38;;;19.92;;
55489;SDS011;44029;52.956;4.772;2023-06-22T03:52:19;40.33;;;21.02;;
55489;SDS011;44029;52.956;4.772;2023-06-22T03:54:45;41.50;;;20.48;;
55489;SDS011;44029;52.956;4.772;2023-06-22T03:57:11;44.15;;;22.15;;
55489;SDS011;44029;52.956;4.772;2023-06-22T03:59:36;42.28;;;22.20;;
55489;SDS011;44029;52.956;4.772;2023-06-22T04:02:02;47.20;;;22.60;;
55489;SDS011;44029;52.956;4.772;2023-06-22T04:04:27;43.30;;;21.00;;
55489;SDS011;44029;52.956;4.772;2023-06-22T04:06:53;40.50;;;20.80;;
55489;SDS011;44029;52.956;4.772;2023-06-22T04:09:18;32.33;;;18.13;;
55489;SDS011;44029;52.956;4.772;2023-06-22T04:11:44;32.55;;;18.35;;
55489;SDS011;44029;52.956;4.772;2023-06-22T04:14:09;30.00;;;16.80;;
55489;SDS011;44029;52.956;4.772;2023-06-22T04:16:34;28.63;;;15.65;;
55489;SDS011;44029;52.956;4.772;2023-06-22T04:19:00;27.48;;;15.35;;
55489;SDS011;44029;52.956;4.772;2023-06-22T04:21:25;23.98;;;13.70;;
55489;SDS011;44029;52.956;4.772;2023-06-22T04:23:50;25.27;;;14.18;;
55489;SDS011;44029;52.956;4.772;2023-06-22T04:26:16;19.48;;;11.63;;
55489;SDS011;44029;52.956;4.772;2023-06-22T04:28:41;24.55;;;13.98;;
55489;SDS011;44029;52.956;4.772;2023-06-22T04:31:06;22.48;;;13.77;;
55489;SDS011;44029;52.956;4.772;2023-06-22T04:33:32;23.52;;;13.48;;
55489;SDS011;44029;52.956;4.772;2023-06-22T04:35:58;21.25;;;13.93;;
55489;SDS011;44029;52.956;4.772;2023-06-22T04:38:26;29.05;;;14.70;;
55489;SDS011;44029;52.956;4.772;2023-06-22T04:40:51;24.33;;;14.05;;
55489;SDS011;44029;52.956;4.772;2023-06-22T04:43:18;25.73;;;14.73;;
55489;SDS011;44029;52.956;4.772;2023-06-22T04:45:44;26.50;;;14.57;;
55489;SDS011;44029;52.956;4.772;2023-06-22T04:48:09;23.63;;;13.65;;
55489;SDS011;44029;52.956;4.772;2023-06-22T04:50:35;22.73;;;14.50;;
55489;SDS011;44029;52.956;4.772;2023-06-22T04:53:04;23.33;;;14.13;;
55489;SDS011;44029;52.956;4.772;2023-06-22T04:55:31;23.42;;;14.60;;
55489;SDS011;44029;52.956;4.772;2023-06-22T04:57:57;22.40;;;12.75;;
55489;SDS011;44029;52.956;4.772;2023-06-22T05:00:30;28.67;;;15.52;;
55489;SDS011;44029;52.956;4.772;2023-06-22T05:02:56;24.63;;;13.95;;
55489;SDS011;44029;52.956;4.772;2023-06-22T05:05:23;23.33;;;14.30;;
55489;SDS011;44029;52.956;4.772;2023-06-22T05:07:49;23.95;;;13.95;;
55489;SDS011;44029;52.956;4.772;2023-06-22T05:10:18;21.38;;;12.57;;
55489;SDS011;44029;52.956;4.772;2023-06-22T05:12:44;17.38;;;11.07;;
55489;SDS011;44029;52.956;4.772;2023-06-22T05:15:10;15.88;;;11.10;;
55489;SDS011;44029;52.956;4.772;2023-06-22T05:17:36;15.57;;;8.13;;
55489;SDS011;44029;52.956;4.772;2023-06-22T05:20:06;17.25;;;9.07;;
55489;SDS011;44029;52.956;4.772;2023-06-22T05:22:32;14.32;;;8.80;;
55489;SDS011;44029;52.956;4.772;2023-06-22T05:24:57;13.65;;;8.15;;
55489;SDS011;44029;52.956;4.772;2023-06-22T05:27:23;12.50;;;7.90;;
55489;SDS011;44029;52.956;4.772;2023-06-22T05:29:48;10.25;;;6.60;;
55489;SDS011;44029;52.956;4.772;2023-06-22T05:32:13;8.30;;;5.88;;
55489;SDS011;44029;52.956;4.772;2023-06-22T05:34:39;10.52;;;5.88;;
55489;SDS011;44029;52.956;4.772;2023-06-22T05:37:05;10.90;;;6.10;;
55489;SDS011;44029;52.956;4.772;2023-06-22T05:39:31;11.25;;;4.60;;
55489;SDS011;44029;52.956;4.772;2023-06-22T05:41:56;8.98;;;4.72;;
55489;SDS011;44029;52.956;4.772;2023-06-22T05:44:22;15.57;;;5.38;;
55489;SDS011;44029;52.956;4.772;2023-06-22T05:46:47;10.82;;;6.07;;
55489;SDS011;44029;52.956;4.772;2023-06-22T05:49:13;11.85;;;7.13;;
55489;SDS011;44029;52.956;4.772;2023-06-22T05:51:39;17.58;;;7.20;;
55489;SDS011;44029;52.956;4.772;2023-06-22T05:54:05;15.48;;;8.38;;
55489;SDS011;44029;52.956;4.772;2023-06-22T05:56:30;15.80;;;8.75;;
55489;SDS011;44029;52.956;4.772;2023-06-22T05:58:56;14.98;;;9.50;;
55489;SDS011;44029;52.956;4.772;2023-06-22T06:01:21;17.92;;;8.60;;
55489;SDS011;44029;52.956;4.772;2023-06-22T06:03:46;20.10;;;10.75;;
55489;SDS011;44029;52.956;4.772;2023-06-22T06:06:12;23.17;;;12.52;;
55489;SDS011;44029;52.956;4.772;2023-06-22T06:08:38;26.58;;;18.48;;
55489;SDS011;44029;52.956;4.772;2023-06-22T06:11:04;23.77;;;13.48;;
55489;SDS011;44029;52.956;4.772;2023-06-22T06:13:29;24.52;;;15.10;;
55489;SDS011;44029;52.956;4.772;2023-06-22T06:15:55;25.95;;;13.68;;
55489;SDS011;44029;52.956;4.772;2023-06-22T06:18:21;22.40;;;13.18;;
55489;SDS011;44029;52.956;4.772;2023-06-22T06:20:46;24.40;;;14.02;;
55489;SDS011;44029;52.956;4.772;2023-06-22T06:23:12;20.60;;;13.55;;
55489;SDS011;44029;52.956;4.772;2023-06-22T06:25:37;23.55;;;14.05;;
55489;SDS011;44029;52.956;4.772;2023-06-22T06:28:03;18.20;;;12.73;;
55489;SDS011;44029;52.956;4.772;2023-06-22T06:30:28;22.23;;;12.05;;
55489;SDS011;44029;52.956;4.772;2023-06-22T06:32:54;18.83;;;11.93;;
55489;SDS011;44029;52.956;4.772;2023-06-22T06:35:19;17.55;;;12.35;;
55489;SDS011;44029;52.956;4.772;2023-06-22T06:37:45;20.65;;;13.15;;
55489;SDS011;44029;52.956;4.772;2023-06-22T06:40:13;19.67;;;12.63;;
55489;SDS011;44029;52.956;4.772;2023-06-22T06:42:40;21.48;;;14.18;;
55489;SDS011;44029;52.956;4.772;2023-06-22T06:45:09;22.08;;;15.05;;
55489;SDS011;44029;52.956;4.772;2023-06-22T06:47:41;25.88;;;15.20;;
55489;SDS011;44029;52.956;4.772;2023-06-22T06:50:07;20.95;;;14.88;;
55489;SDS011;44029;52.956;4.772;2023-06-22T06:52:33;23.88;;;15.02;;
55489;SDS011;44029;52.956;4.772;2023-06-22T06:54:59;24.75;;;15.27;;
55489;SDS011;44029;52.956;4.772;2023-06-22T06:57:25;24.08;;;15.23;;
55489;SDS011;44029;52.956;4.772;2023-06-22T06:59:56;20.33;;;14.02;;
55489;SDS011;44029;52.956;4.772;2023-06-22T07:02:25;22.65;;;14.82;;
55489;SDS011;44029;52.956;4.772;2023-06-22T07:04:52;22.73;;;14.57;;
55489;SDS011;44029;52.956;4.772;2023-06-22T07:07:18;20.27;;;12.85;;
55489;SDS011;44029;52.956;4.772;2023-06-22T07:09:43;24.10;;;14.25;;
55489;SDS011;44029;52.956;4.772;2023-06-22T07:12:08;20.90;;;13.65;;
55489;SDS011;44029;52.956;4.772;2023-06-22T07:14:34;19.40;;;13.18;;
55489;SDS011;44029;52.956;4.772;2023-06-22T07:16:59;21.45;;;11.95;;
55489;SDS011;44029;52.956;4.772;2023-06-22T07:19:25;21.13;;;12.63;;
55489;SDS011;44029;52.956;4.772;2023-06-22T07:21:52;21.40;;;14.07;;
55489;SDS011;44029;52.956;4.772;2023-06-22T07:24:18;22.08;;;12.63;;
55489;SDS011;44029;52.956;4.772;2023-06-22T07:26:45;18.77;;;12.77;;
55489;SDS011;44029;52.956;4.772;2023-06-22T07:29:13;19.27;;;13.43;;
55489;SDS011;44029;52.956;4.772;2023-06-22T07:31:38;19.13;;;12.43;;
55489;SDS011;44029;52.956;4.772;2023-06-22T07:34:05;18.25;;;12.32;;
55489;SDS011;44029;52.956;4.772;2023-06-22T07:36:31;20.25;;;12.80;;
55489;SDS011;44029;52.956;4.772;2023-06-22T07:38:56;22.83;;;12.35;;
55489;SDS011;44029;52.956;4.772;2023-06-22T07:41:21;18.77;;;12.45;;
55489;SDS011;44029;52.956;4.772;2023-06-22T07:43:47;21.98;;;11.73;;
55489;SDS011;44029;52.956;4.772;2023-06-22T07:46:13;19.90;;;11.48;;
55489;SDS011;44029;52.956;4.772;2023-06-22T07:48:38;15.85;;;9.90;;
55489;SDS011;44029;52.956;4.772;2023-06-22T07:51:04;16.42;;;10.15;;
55489;SDS011;44029;52.956;4.772;2023-06-22T07:53:31;18.80;;;10.80;;
55489;SDS011;44029;52.956;4.772;2023-06-22T07:55:56;22.80;;;11.48;;
55489;SDS011;44029;52.956;4.772;2023-06-22T07:58:21;18.73;;;10.75;;
55489;SDS011;44029;52.956;4.772;2023-06-22T08:00:47;20.33;;;10.82;;
55489;SDS011;44029;52.956;4.772;2023-06-22T08:03:13;16.88;;;10.43;;
55489;SDS011;44029;52.956;4.772;2023-06-22T08:05:39;20.48;;;10.52;;
55489;SDS011;44029;52.956;4.772;2023-06-22T08:08:04;17.83;;;10.63;;
55489;SDS011;44029;52.956;4.772;2023-06-22T08:10:29;18.48;;;11.60;;
55489;SDS011;44029;52.956;4.772;2023-06-22T08:12:55;16.67;;;9.55;;
55489;SDS011;44029;52.956;4.772;2023-06-22T08:15:20;15.10;;;10.23;;
55489;SDS011;44029;52.956;4.772;2023-06-22T08:17:47;19.67;;;10.82;;
55489;SDS011;44029;52.956;4.772;2023-06-22T08:20:12;15.93;;;10.90;;
55489;SDS011;44029;52.956;4.772;2023-06-22T08:22:38;17.70;;;11.23;;
55489;SDS011;44029;52.956;4.772;2023-06-22T08:25:04;18.33;;;10.60;;
55489;SDS011;44029;52.956;4.772;2023-06-22T08:27:31;21.63;;;10.98;;
55489;SDS011;44029;52.956;4.772;2023-06-22T08:29:57;20.58;;;9.98;;
55489;SDS011;44029;52.956;4.772;2023-06-22T08:32:26;19.15;;;11.55;;
55489;SDS011;44029;52.956;4.772;2023-06-22T08:34:55;21.33;;;11.25;;
55489;SDS011;44029;52.956;4.772;2023-06-22T08:37:21;17.65;;;11.05;;
55489;SDS011;44029;52.956;4.772;2023-06-22T08:39:55;18.63;;;10.93;;
55489;SDS011;44029;52.956;4.772;2023-06-22T08:42:25;15.98;;;9.85;;
55489;SDS011;44029;52.956;4.772;2023-06-22T08:44:51;17.83;;;10.43;;
55489;SDS011;44029;52.956;4.772;2023-06-22T08:47:16;18.92;;;9.05;;
55489;SDS011;44029;52.956;4.772;2023-06-22T08:49:42;18.05;;;9.75;;
55489;SDS011;44029;52.956;4.772;2023-06-22T08:52:07;17.45;;;11.07;;
55489;SDS011;44029;52.956;4.772;2023-06-22T08:54:33;18.50;;;9.85;;
55489;SDS011;44029;52.956;4.772;2023-06-22T08:57:00;14.77;;;9.98;;
55489;SDS011;44029;52.956;4.772;2023-06-22T08:59:26;19.30;;;10.77;;
55489;SDS011;44029;52.956;4.772;2023-06-22T09:01:51;18.13;;;11.63;;
55489;SDS011;44029;52.956;4.772;2023-06-22T09:04:16;18.30;;;11.02;;
55489;SDS011;44029;52.956;4.772;2023-06-22T09:06:42;15.98;;;9.82;;
55489;SDS011;44029;52.956;4.772;2023-06-22T09:09:12;18.73;;;10.45;;
55489;SDS011;44029;52.956;4.772;2023-06-22T09:11:38;17.25;;;10.43;;
55489;SDS011;44029;52.956;4.772;2023-06-22T09:14:03;19.05;;;10.15;;
55489;SDS011;44029;52.956;4.772;2023-06-22T09:16:29;14.35;;;8.13;;
55489;SDS011;44029;52.956;4.772;2023-06-22T09:18:55;21.35;;;12.95;;
55489;SDS011;44029;52.956;4.772;2023-06-22T09:21:20;32.15;;;12.40;;
55489;SDS011;44029;52.956;4.772;2023-06-22T09:23:45;17.25;;;9.23;;
55489;SDS011;44029;52.956;4.772;2023-06-22T09:26:15;23.00;;;11.55;;
55489;SDS011;44029;52.956;4.772;2023-06-22T09:28:40;33.60;;;15.73;;
55489;SDS011;44029;52.956;4.772;2023-06-22T09:31:06;15.88;;;9.32;;
55489;SDS011;44029;52.956;4.772;2023-06-22T09:33:32;22.48;;;10.70;;
55489;SDS011;44029;52.956;4.772;2023-06-22T09:35:57;68.07;;;16.50;;
55489;SDS011;44029;52.956;4.772;2023-06-22T09:38:22;16.38;;;10.45;;
55489;SDS011;44029;52.956;4.772;2023-06-22T09:40:48;20.65;;;14.75;;
55489;SDS011;44029;52.956;4.772;2023-06-22T09:43:13;18.17;;;12.95;;
55489;SDS011;44029;52.956;4.772;2023-06-22T09:45:39;27.05;;;16.05;;
55489;SDS011;44029;52.956;4.772;2023-06-22T09:48:04;24.58;;;15.55;;
55489;SDS011;44029;52.956;4.772;2023-06-22T09:50:30;22.85;;;15.10;;
55489;SDS011;44029;52.956;4.772;2023-06-22T09:52:55;23.15;;;14.77;;
55489;SDS011;44029;52.956;4.772;2023-06-22T09:55:21;22.77;;;14.48;;
55489;SDS011;44029;52.956;4.772;2023-06-22T09:57:47;26.02;;;15.02;;
55489;SDS011;44029;52.956;4.772;2023-06-22T10:00:13;25.42;;;15.75;;
55489;SDS011;44029;52.956;4.772;2023-06-22T10:02:41;24.67;;;15.75;;
55489;SDS011;44029;52.956;4.772;2023-06-22T10:05:06;25.42;;;14.80;;
55489;SDS011;44029;52.956;4.772;2023-06-22T10:07:32;21.35;;;13.32;;
55489;SDS011;44029;52.956;4.772;2023-06-22T10:09:58;23.10;;;15.15;;
55489;SDS011;44029;52.956;4.772;2023-06-22T10:12:24;23.30;;;15.48;;
55489;SDS011;44029;52.956;4.772;2023-06-22T10:14:50;21.58;;;15.13;;
55489;SDS011;44029;52.956;4.772;2023-06-22T10:17:15;25.83;;;14.95;;
55489;SDS011;44029;52.956;4.772;2023-06-22T10:19:41;24.67;;;15.57;;
55489;SDS011;44029;52.956;4.772;2023-06-22T10:22:06;23.88;;;14.23;;
55489;SDS011;44029;52.956;4.772;2023-06-22T10:24:32;25.15;;;14.40;;
55489;SDS011;44029;52.956;4.772;2023-06-22T10:26:57;21.52;;;15.05;;
55489;SDS011;44029;52.956;4.772;2023-06-22T10:29:22;23.85;;;16.90;;
55489;SDS011;44029;52.956;4.772;2023-06-22T10:31:48;25.25;;;15.43;;
55489;SDS011;44029;52.956;4.772;2023-06-22T10:34:13;23.33;;;14.80;;
55489;SDS011;44029;52.956;4.772;2023-06-22T10:36:39;25.30;;;15.27;;
55489;SDS011;44029;52.956;4.772;2023-06-22T10:39:04;19.90;;;13.70;;
55489;SDS011;44029;52.956;4.772;2023-06-22T10:41:30;21.15;;;14.57;;
55489;SDS011;44029;52.956;4.772;2023-06-22T10:43:56;26.50;;;14.50;;
55489;SDS011;44029;52.956;4.772;2023-06-22T10:46:21;17.85;;;11.50;;
55489;SDS011;44029;52.956;4.772;2023-06-22T10:48:49;20.40;;;13.55;;
55489;SDS011;44029;52.956;4.772;2023-06-22T10:51:14;18.52;;;13.10;;
55489;SDS011;44029;52.956;4.772;2023-06-22T10:53:39;22.27;;;14.70;;
55489;SDS011;44029;52.956;4.772;2023-06-22T10:56:05;22.77;;;14.18;;
55489;SDS011;44029;52.956;4.772;2023-06-22T10:58:30;25.40;;;16.05;;
55489;SDS011;44029;52.956;4.772;2023-06-22T11:00:56;26.50;;;16.80;;
55489;SDS011;44029;52.956;4.772;2023-06-22T11:03:21;24.83;;;17.13;;
55489;SDS011;44029;52.956;4.772;2023-06-22T11:05:46;26.33;;;15.82;;
55489;SDS011;44029;52.956;4.772;2023-06-22T11:08:12;29.63;;;17.30;;
55489;SDS011;44029;52.956;4.772;2023-06-22T11:10:38;24.98;;;17.17;;
55489;SDS011;44029;52.956;4.772;2023-06-22T11:13:03;24.10;;;15.88;;
55489;SDS011;44029;52.956;4.772;2023-06-22T11:15:30;24.27;;;13.15;;
55489;SDS011;44029;52.956;4.772;2023-06-22T11:17:55;23.67;;;15.27;;
55489;SDS011;44029;52.956;4.772;2023-06-22T11:20:21;21.70;;;14.05;;
55489;SDS011;44029;52.956;4.772;2023-06-22T11:22:46;22.13;;;13.02;;
55489;SDS011;44029;52.956;4.772;2023-06-22T11:25:12;31.83;;;20.63;;
55489;SDS011;44029;52.956;4.772;2023-06-22T11:27:37;23.38;;;14.23;;
55489;SDS011;44029;52.956;4.772;2023-06-22T11:30:03;20.02;;;13.50;;
55489;SDS011;44029;52.956;4.772;2023-06-22T11:32:29;19.63;;;13.25;;
55489;SDS011;44029;52.956;4.772;2023-06-22T11:34:54;21.90;;;12.32;;
55489;SDS011;44029;52.956;4.772;2023-06-22T11:37:19;20.92;;;10.25;;
55489;SDS011;44029;52.956;4.772;2023-06-22T11:39:45;14.63;;;8.30;;
55489;SDS011;44029;52.956;4.772;2023-06-22T11:42:10;12.13;;;6.68;;
55489;SDS011;44029;52.956;4.772;2023-06-22T11:44:36;15.02;;;6.57;;
55489;SDS011;44029;52.956;4.772;2023-06-22T11:47:01;11.85;;;5.47;;
55489;SDS011;44029;52.956;4.772;2023-06-22T11:49:28;11.25;;;5.10;;
55489;SDS011;44029;52.956;4.772;2023-06-22T11:51:54;5.47;;;2.47;;
55489;SDS011;44029;52.956;4.772;2023-06-22T11:54:20;5.65;;;2.40;;
55489;SDS011;44029;52.956;4.772;2023-06-22T11:56:45;3.63;;;2.47;;
55489;SDS011;44029;52.956;4.772;2023-06-22T11:59:10;4.75;;;2.30;;
55489;SDS011;44029;52.956;4.772;2023-06-22T12:01:36;5.13;;;2.65;;
55489;SDS011;44029;52.956;4.772;2023-06-22T12:04:01;4.65;;;2.10;;
55489;SDS011;44029;52.956;4.772;2023-06-22T12:06:35;4.07;;;2.88;;
55489;SDS011;44029;52.956;4.772;2023-06-22T12:09:03;6.55;;;2.75;;
55489;SDS011;44029;52.956;4.772;2023-06-22T12:11:29;5.00;;;2.78;;
55489;SDS011;44029;52.956;4.772;2023-06-22T12:13:54;3.95;;;2.75;;
55489;SDS011;44029;52.956;4.772;2023-06-22T12:16:20;5.15;;;2.90;;
55489;SDS011;44029;52.956;4.772;2023-06-22T12:18:46;7.22;;;1.98;;
55489;SDS011;44029;52.956;4.772;2023-06-22T12:21:12;13.73;;;2.10;;
55489;SDS011;44029;52.956;4.772;2023-06-22T12:23:37;4.00;;;1.98;;
55489;SDS011;44029;52.956;4.772;2023-06-22T12:26:03;3.47;;;1.52;;
55489;SDS011;44029;52.956;4.772;2023-06-22T12:28:28;3.63;;;1.63;;
55489;SDS011;44029;52.956;4.772;2023-06-22T12:30:53;6.35;;;1.50;;
55489;SDS011;44029;52.956;4.772;2023-06-22T12:33:19;5.80;;;1.65;;
55489;SDS011;44029;52.956;4.772;2023-06-22T12:35:45;2.90;;;2.17;;
55489;SDS011;44029;52.956;4.772;2023-06-22T12:38:10;2.97;;;1.55;;
55489;SDS011;44029;52.956;4.772;2023-06-22T12:40:36;5.70;;;1.80;;
55489;SDS011;44029;52.956;4.772;2023-06-22T12:43:01;1.80;;;1.30;;
55489;SDS011;44029;52.956;4.772;2023-06-22T12:45:27;2.88;;;1.73;;
55489;SDS011;44029;52.956;4.772;2023-06-22T12:47:54;3.25;;;1.90;;
55489;SDS011;44029;52.956;4.772;2023-06-22T12:50:19;2.83;;;1.83;;
55489;SDS011;44029;52.956;4.772;2023-06-22T12:52:45;2.95;;;1.80;;
55489;SDS011;44029;52.956;4.772;2023-06-22T12:55:10;3.95;;;2.17;;
55489;SDS011;44029;52.956;4.772;2023-06-22T12:57:35;3.30;;;1.95;;
55489;SDS011;44029;52.956;4.772;2023-06-22T13:00:01;3.17;;;2.13;;
55489;SDS011;44029;52.956;4.772;2023-06-22T13:02:26;3.55;;;2.00;;
55489;SDS011;44029;52.956;4.772;2023-06-22T13:04:52;4.97;;;2.10;;
55489;SDS011;44029;52.956;4.772;2023-06-22T13:07:17;2.10;;;1.77;;
55489;SDS011;44029;52.956;4.772;2023-06-22T13:09:43;5.13;;;1.77;;
55489;SDS011;44029;52.956;4.772;2023-06-22T13:12:10;5.97;;;2.15;;
55489;SDS011;44029;52.956;4.772;2023-06-22T13:14:35;3.53;;;1.63;;
55489;SDS011;44029;52.956;4.772;2023-06-22T13:17:01;1.75;;;1.05;;
55489;SDS011;44029;52.956;4.772;2023-06-22T13:19:26;6.45;;;2.35;;
55489;SDS011;44029;52.956;4.772;2023-06-22T13:21:53;5.00;;;2.65;;
55489;SDS011;44029;52.956;4.772;2023-06-22T13:24:19;2.72;;;1.52;;
55489;SDS011;44029;52.956;4.772;2023-06-22T13:26:44;4.05;;;2.47;;
55489;SDS011;44029;52.956;4.772;2023-06-22T13:29:09;4.28;;;2.20;;
55489;SDS011;44029;52.956;4.772;2023-06-22T13:31:35;4.45;;;2.13;;
55489;SDS011;44029;52.956;4.772;2023-06-22T13:34:00;5.45;;;2.65;;
55489;SDS011;44029;52.956;4.772;2023-06-22T13:36:25;3.60;;;2.10;;
55489;SDS011;44029;52.956;4.772;2023-06-22T13:38:51;2.35;;;1.52;;
55489;SDS011;44029;52.956;4.772;2023-06-22T13:41:16;3.05;;;1.90;;
55489;SDS011;44029;52.956;4.772;2023-06-22T13:43:42;5.00;;;2.33;;
55489;SDS011;44029;52.956;4.772;2023-06-22T13:46:07;5.47;;;2.25;;
55489;SDS011;44029;52.956;4.772;2023-06-22T13:48:32;3.67;;;1.60;;
55489;SDS011;44029;52.956;4.772;2023-06-22T13:50:58;3.72;;;2.03;;
55489;SDS011;44029;52.956;4.772;2023-06-22T13:53:24;3.00;;;2.00;;
55489;SDS011;44029;52.956;4.772;2023-06-22T13:55:50;10.45;;;4.30;;
55489;SDS011;44029;52.956;4.772;2023-06-22T13:58:16;6.40;;;4.63;;
55489;SDS011;44029;52.956;4.772;2023-06-22T14:00:41;4.18;;;2.28;;
55489;SDS011;44029;52.956;4.772;2023-06-22T14:03:06;5.95;;;1.48;;
55489;SDS011;44029;52.956;4.772;2023-06-22T14:05:32;6.38;;;2.33;;
55489;SDS011;44029;52.956;4.772;2023-06-22T14:07:57;4.00;;;1.60;;
55489;SDS011;44029;52.956;4.772;2023-06-22T14:10:23;2.22;;;1.40;;
55489;SDS011;44029;52.956;4.772;2023-06-22T14:12:48;3.15;;;1.75;;
55489;SDS011;44029;52.956;4.772;2023-06-22T14:15:13;2.90;;;1.50;;
55489;SDS011;44029;52.956;4.772;2023-06-22T14:17:39;2.30;;;1.65;;
55489;SDS011;44029;52.956;4.772;2023-06-22T14:20:04;3.40;;;1.83;;
55489;SDS011;44029;52.956;4.772;2023-06-22T14:22:32;2.72;;;1.40;;
55489;SDS011;44029;52.956;4.772;2023-06-22T14:25:00;4.85;;;2.58;;
55489;SDS011;44029;52.956;4.772;2023-06-22T14:27:26;2.67;;;1.42;;